sensor_id;sensor_type;location;lat;lon;timestamp;pressure;altitude;pressure_sealevel;temperature;humidity
12897;BME280;6516;35.028;32.372;2023-04-23T00:02:02;99683.66;;;13.73;100.00
12897;BME280;6516;35.028;32.372;2023-04-23T00:04:35;99683.47;;;13.78;100.00
12897;BME280;6516;35.028;32.372;2023-04-23T00:07:04;99681.75;;;13.77;100.00
12897;BME280;6516;35.028;32.372;2023-04-23T00:09:34;99685.50;;;13.71;100.00
12897;BME280;6516;35.028;32.372;2023-04-23T00:12:03;99683.81;;;13.69;100.00
12897;BME280;6516;35.028;32.372;2023-04-23T00:14:32;99690.94;;;13.68;100.00
12897;BME280;6516;35.028;32.372;2023-04-23T00:17:00;99697.88;;;13.71;100.00
12897;BME280;6516;35.028;32.372;2023-04-23T00:19:28;99689.84;;;13.74;100.00
12897;BME280;6516;35.028;32.372;2023-04-23T00:21:57;99686.91;;;13.58;100.00
12897;BME280;6516;35.028;32.372;2023-04-23T00:24:26;99691.56;;;13.52;99.82
12897;BME280;6516;35.028;32.372;2023-04-23T00:26:53;99686.56;;;13.44;100.00
12897;BME280;6516;35.028;32.372;2023-04-23T00:29:21;99690.72;;;13.50;100.00
12897;BME280;6516;35.028;32.372;2023-04-23T00:31:49;99686.13;;;13.55;100.00
12897;BME280;6516;35.028;32.372;2023-04-23T00:34:16;99687.44;;;13.66;100.00
12897;BME280;6516;35.028;32.372;2023-04-23T00:36:44;99681.19;;;13.69;100.00
12897;BME280;6516;35.028;32.372;2023-04-23T00:39:13;99681.19;;;13.69;100.00
12897;BME280;6516;35.028;32.372;2023-04-23T00:41:41;99678.09;;;13.58;100.00
12897;BME280;6516;35.028;32.372;2023-04-23T00:44:09;99675.00;;;13.47;100.00
12897;BME280;6516;35.028;32.372;2023-04-23T00:46:38;99667.22;;;13.42;100.00
12897;BME280;6516;35.028;32.372;2023-04-23T00:49:06;99669.53;;;13.51;100.00
12897;BME280;6516;35.028;32.372;2023-04-23T00:51:35;99668.31;;;13.60;100.00
12897;BME280;6516;35.028;32.372;2023-04-23T00:54:03;99656.81;;;13.61;100.00
12897;BME280;6516;35.028;32.372;2023-04-23T00:56:32;99666.81;;;13.53;100.00
12897;BME280;6516;35.028;32.372;2023-04-23T00:59:00;99664.53;;;13.44;100.00
12897;BME280;6516;35.028;32.372;2023-04-23T01:01:29;99662.91;;;13.40;100.00
12897;BME280;6516;35.028;32.372;2023-04-23T01:03:58;99666.75;;;13.31;100.00
12897;BME280;6516;35.028;32.372;2023-04-23T01:06:26;99670.25;;;13.32;100.00
12897;BME280;6516;35.028;32.372;2023-04-23T01:08:56;99672.47;;;13.44;100.00
12897;BME280;6516;35.028;32.372;2023-04-23T01:11:24;99665.09;;;13.52;100.00
12897;BME280;6516;35.028;32.372;2023-04-23T01:13:55;99667.75;;;13.52;100.00
12897;BME280;6516;35.028;32.372;2023-04-23T01:16:23;99663.09;;;13.58;100.00
12897;BME280;6516;35.028;32.372;2023-04-23T01:18:50;99659.56;;;13.58;100.00
12897;BME280;6516;35.028;32.372;2023-04-23T01:21:18;99663.16;;;13.57;100.00
12897;BME280;6516;35.028;32.372;2023-04-23T01:23:48;99665.84;;;13.55;100.00
12897;BME280;6516;35.028;32.372;2023-04-23T01:26:16;99655.31;;;13.54;100.00
12897;BME280;6516;35.028;32.372;2023-04-23T01:28:45;99657.00;;;13.56;100.00
12897;BME280;6516;35.028;32.372;2023-04-23T01:31:13;99654.34;;;13.56;100.00
12897;BME280;6516;35.028;32.372;2023-04-23T01:33:42;99660.84;;;13.48;100.00
12897;BME280;6516;35.028;32.372;2023-04-23T01:36:11;99654.88;;;13.43;100.00
12897;BME280;6516;35.028;32.372;2023-04-23T01:38:40;99653.75;;;13.48;100.00
12897;BME280;6516;35.028;32.372;2023-04-23T01:41:09;99651.34;;;13.42;100.00
12897;BME280;6516;35.028;32.372;2023-04-23T01:43:37;99644.44;;;13.38;100.00
12897;BME280;6516;35.028;32.372;2023-04-23T01:46:06;99652.28;;;13.41;100.00
12897;BME280;6516;35.028;32.372;2023-04-23T01:48:34;99637.97;;;13.47;100.00
12897;BME280;6516;35.028;32.372;2023-04-23T01:51:03;99643.06;;;13.51;100.00
12897;BME280;6516;35.028;32.372;2023-04-23T01:53:30;99640.31;;;13.54;100.00
12897;BME280;6516;35.028;32.372;2023-04-23T01:55:59;99635.44;;;13.67;100.00
12897;BME280;6516;35.028;32.372;2023-04-23T01:58:30;99634.19;;;13.75;100.00
12897;BME280;6516;35.028;32.372;2023-04-23T02:00:57;99635.81;;;13.79;100.00
12897;BME280;6516;35.028;32.372;2023-04-23T02:03:25;99627.81;;;13.81;100.00
12897;BME280;6516;35.028;32.372;2023-04-23T02:05:55;99631.34;;;13.81;100.00
12897;BME280;6516;35.028;32.372;2023-04-23T02:08:23;99637.59;;;13.79;100.00
12897;BME280;6516;35.028;32.372;2023-04-23T02:10:51;99629.88;;;13.73;100.00
12897;BME280;6516;35.028;32.372;2023-04-23T02:13:19;99631.69;;;13.72;100.00
12897;BME280;6516;35.028;32.372;2023-04-23T02:15:48;99631.00;;;13.67;100.00
12897;BME280;6516;35.028;32.372;2023-04-23T02:18:16;99638.03;;;13.68;100.00
12897;BME280;6516;35.028;32.372;2023-04-23T02:20:44;99636.41;;;13.64;100.00
12897;BME280;6516;35.028;32.372;2023-04-23T02:23:11;99636.41;;;13.64;100.00
12897;BME280;6516;35.028;32.372;2023-04-23T02:25:39;99639.09;;;13.63;100.00
12897;BME280;6516;35.028;32.372;2023-04-23T02:28:09;99647.09;;;13.61;100.00
12897;BME280;6516;35.028;32.372;2023-04-23T02:30:38;99642.69;;;13.62;100.00
12897;BME280;6516;35.028;32.372;2023-04-23T02:33:11;99646.25;;;13.61;100.00
12897;BME280;6516;35.028;32.372;2023-04-23T02:35:39;99646.34;;;13.58;100.00
12897;BME280;6516;35.028;32.372;2023-04-23T02:38:07;99642.00;;;13.57;100.00
12897;BME280;6516;35.028;32.372;2023-04-23T02:40:34;99646.53;;;13.53;100.00
12897;BME280;6516;35.028;32.372;2023-04-23T02:43:02;99654.53;;;13.52;100.00
12897;BME280;6516;35.028;32.372;2023-04-23T02:45:30;99652.97;;;13.46;100.00
12897;BME280;6516;35.028;32.372;2023-04-23T02:47:57;99667.47;;;13.36;100.00
12897;BME280;6516;35.028;32.372;2023-04-23T02:50:27;99662.56;;;13.26;100.00
12897;BME280;6516;35.028;32.372;2023-04-23T02:52:54;99658.41;;;13.19;100.00
12897;BME280;6516;35.028;32.372;2023-04-23T02:55:22;99660.91;;;12.99;100.00
12897;BME280;6516;35.028;32.372;2023-04-23T02:57:50;99660.25;;;12.91;100.00
12897;BME280;6516;35.028;32.372;2023-04-23T03:00:18;99662.66;;;12.98;100.00
12897;BME280;6516;35.028;32.372;2023-04-23T03:02:46;99663.53;;;12.99;100.00
12897;BME280;6516;35.028;32.372;2023-04-23T03:05:14;99667.06;;;12.99;100.00
12897;BME280;6516;35.028;32.372;2023-04-23T03:07:43;99667.81;;;13.03;100.00
12897;BME280;6516;35.028;32.372;2023-04-23T03:10:11;99670.44;;;13.03;100.00
12897;BME280;6516;35.028;32.372;2023-04-23T03:12:39;99677.50;;;13.02;100.00
12897;BME280;6516;35.028;32.372;2023-04-23T03:15:07;99676.56;;;13.03;100.00
12897;BME280;6516;35.028;32.372;2023-04-23T03:17:36;99673.38;;;12.94;100.00
12897;BME280;6516;35.028;32.372;2023-04-23T03:20:05;99671.97;;;12.84;100.00
12897;BME280;6516;35.028;32.372;2023-04-23T03:22:35;99672.47;;;12.69;100.00
12897;BME280;6516;35.028;32.372;2023-04-23T03:25:05;99667.31;;;12.66;100.00
12897;BME280;6516;35.028;32.372;2023-04-23T03:27:33;99673.41;;;12.68;100.00
12897;BME280;6516;35.028;32.372;2023-04-23T03:30:01;99680.16;;;12.76;100.00
12897;BME280;6516;35.028;32.372;2023-04-23T03:32:30;99684.25;;;12.85;100.00
12897;BME280;6516;35.028;32.372;2023-04-23T03:34:57;99688.94;;;12.77;100.00
12897;BME280;6516;35.028;32.372;2023-04-23T03:37:26;99687.78;;;12.59;100.00
12897;BME280;6516;35.028;32.372;2023-04-23T03:39:54;99683.56;;;12.54;100.00
12897;BME280;6516;35.028;32.372;2023-04-23T03:42:23;99687.97;;;12.53;100.00
12897;BME280;6516;35.028;32.372;2023-04-23T03:44:51;99688.94;;;12.51;100.00
12897;BME280;6516;35.028;32.372;2023-04-23T03:47:18;99687.44;;;12.44;100.00
12897;BME280;6516;35.028;32.372;2023-04-23T03:49:46;99700.22;;;12.30;100.00
12897;BME280;6516;35.028;32.372;2023-04-23T03:52:14;99696.03;;;12.23;100.00
12897;BME280;6516;35.028;32.372;2023-04-23T03:54:41;99699.34;;;12.29;100.00
12897;BME280;6516;35.028;32.372;2023-04-23T03:57:09;99706.25;;;12.33;100.00
12897;BME280;6516;35.028;32.372;2023-04-23T03:59:39;99698.50;;;12.29;100.00
12897;BME280;6516;35.028;32.372;2023-04-23T04:02:07;99704.09;;;12.18;100.00
12897;BME280;6516;35.028;32.372;2023-04-23T04:04:34;99708.50;;;12.18;100.00
12897;BME280;6516;35.028;32.372;2023-04-23T04:07:02;99705.63;;;12.25;100.00
12897;BME280;6516;35.028;32.372;2023-04-23T04:09:30;99708.81;;;12.36;100.00
12897;BME280;6516;35.028;32.372;2023-04-23T04:11:58;99704.69;;;12.54;100.00
12897;BME280;6516;35.028;32.372;2023-04-23T04:14:26;99703.78;;;12.81;100.00
12897;BME280;6516;35.028;32.372;2023-04-23T04:16:55;99708.84;;;13.13;100.00
12897;BME280;6516;35.028;32.372;2023-04-23T04:19:23;99705.13;;;13.43;99.32
12897;BME280;6516;35.028;32.372;2023-04-23T04:21:51;99708.56;;;13.68;98.48
12897;BME280;6516;35.028;32.372;2023-04-23T04:24:19;99713.63;;;13.97;97.67
12897;BME280;6516;35.028;32.372;2023-04-23T04:26:48;99704.91;;;14.16;96.20
12897;BME280;6516;35.028;32.372;2023-04-23T04:29:18;99710.84;;;14.23;94.97
12897;BME280;6516;35.028;32.372;2023-04-23T04:31:48;99709.38;;;14.37;94.58
12897;BME280;6516;35.028;32.372;2023-04-23T04:34:17;99710.25;;;14.59;94.35
12897;BME280;6516;35.028;32.372;2023-04-23T04:36:45;99713.69;;;14.83;94.42
12897;BME280;6516;35.028;32.372;2023-04-23T04:39:13;99715.16;;;15.10;94.14
12897;BME280;6516;35.028;32.372;2023-04-23T04:41:42;99720.03;;;15.40;93.38
12897;BME280;6516;35.028;32.372;2023-04-23T04:44:09;99724.03;;;15.69;92.60
12897;BME280;6516;35.028;32.372;2023-04-23T04:46:39;99715.50;;;15.99;88.67
12897;BME280;6516;35.028;32.372;2023-04-23T04:49:07;99715.16;;;16.44;89.78
12897;BME280;6516;35.028;32.372;2023-04-23T04:51:38;99714.31;;;16.96;88.99
12897;BME280;6516;35.028;32.372;2023-04-23T04:54:06;99719.03;;;17.42;85.92
12897;BME280;6516;35.028;32.372;2023-04-23T04:56:34;99722.16;;;17.98;85.60
12897;BME280;6516;35.028;32.372;2023-04-23T04:59:02;99719.75;;;18.41;83.29
12897;BME280;6516;35.028;32.372;2023-04-23T05:01:30;99721.09;;;18.79;81.05
12897;BME280;6516;35.028;32.372;2023-04-23T05:03:58;99716.06;;;19.18;79.95
12897;BME280;6516;35.028;32.372;2023-04-23T05:06:26;99717.91;;;19.62;79.10
12897;BME280;6516;35.028;32.372;2023-04-23T05:08:55;99719.81;;;19.88;75.01
12897;BME280;6516;35.028;32.372;2023-04-23T05:11:23;99718.22;;;20.13;70.62
12897;BME280;6516;35.028;32.372;2023-04-23T05:13:51;99720.28;;;20.36;67.77
12897;BME280;6516;35.028;32.372;2023-04-23T05:16:18;99715.00;;;20.49;63.62
12897;BME280;6516;35.028;32.372;2023-04-23T05:18:46;99710.75;;;20.85;64.72
12897;BME280;6516;35.028;32.372;2023-04-23T05:21:14;99713.66;;;21.09;59.44
12897;BME280;6516;35.028;32.372;2023-04-23T05:23:42;99707.47;;;21.33;53.65
12897;BME280;6516;35.028;32.372;2023-04-23T05:26:11;99703.34;;;21.54;55.66
12897;BME280;6516;35.028;32.372;2023-04-23T05:28:39;99707.00;;;21.78;56.37
12897;BME280;6516;35.028;32.372;2023-04-23T05:31:06;99711.97;;;22.20;56.21
12897;BME280;6516;35.028;32.372;2023-04-23T05:33:34;99705.66;;;22.21;52.69
12897;BME280;6516;35.028;32.372;2023-04-23T05:36:02;99710.03;;;22.47;52.49
12897;BME280;6516;35.028;32.372;2023-04-23T05:38:30;99707.13;;;22.50;52.02
12897;BME280;6516;35.028;32.372;2023-04-23T05:40:58;99713.63;;;22.59;54.32
12897;BME280;6516;35.028;32.372;2023-04-23T05:43:27;99704.53;;;22.49;53.72
12897;BME280;6516;35.028;32.372;2023-04-23T05:45:55;99704.97;;;22.43;53.59
12897;BME280;6516;35.028;32.372;2023-04-23T05:48:22;99701.63;;;22.39;54.93
12897;BME280;6516;35.028;32.372;2023-04-23T05:50:50;99696.78;;;22.57;54.30
12897;BME280;6516;35.028;32.372;2023-04-23T05:53:18;99694.94;;;22.57;54.03
12897;BME280;6516;35.028;32.372;2023-04-23T05:55:46;99696.22;;;22.64;54.33
12897;BME280;6516;35.028;32.372;2023-04-23T05:58:13;99688.69;;;22.69;53.74
12897;BME280;6516;35.028;32.372;2023-04-23T06:00:45;99686.22;;;22.90;50.82
12897;BME280;6516;35.028;32.372;2023-04-23T06:03:13;99696.22;;;22.88;50.36
12897;BME280;6516;35.028;32.372;2023-04-23T06:05:41;99692.84;;;22.97;48.73
12897;BME280;6516;35.028;32.372;2023-04-23T06:08:09;99692.38;;;23.03;47.22
12897;BME280;6516;35.028;32.372;2023-04-23T06:10:37;99689.00;;;23.12;47.22
12897;BME280;6516;35.028;32.372;2023-04-23T06:13:04;99680.28;;;23.21;45.60
12897;BME280;6516;35.028;32.372;2023-04-23T06:15:33;99689.72;;;23.48;47.25
12897;BME280;6516;35.028;32.372;2023-04-23T06:18:02;99679.88;;;23.71;48.25
12897;BME280;6516;35.028;32.372;2023-04-23T06:20:30;99677.34;;;23.91;48.71
12897;BME280;6516;35.028;32.372;2023-04-23T06:22:58;99666.56;;;24.02;46.23
12897;BME280;6516;35.028;32.372;2023-04-23T06:25:27;99672.22;;;23.99;42.82
12897;BME280;6516;35.028;32.372;2023-04-23T06:27:55;99676.47;;;24.35;46.01
12897;BME280;6516;35.028;32.372;2023-04-23T06:30:23;99670.56;;;24.41;43.45
12897;BME280;6516;35.028;32.372;2023-04-23T06:32:51;99672.66;;;24.37;43.66
12897;BME280;6516;35.028;32.372;2023-04-23T06:35:20;99680.72;;;24.59;44.13
12897;BME280;6516;35.028;32.372;2023-04-23T06:37:48;99681.66;;;24.80;42.32
12897;BME280;6516;35.028;32.372;2023-04-23T06:40:16;99681.03;;;25.08;43.49
12897;BME280;6516;35.028;32.372;2023-04-23T06:42:44;99687.94;;;25.33;41.83
12897;BME280;6516;35.028;32.372;2023-04-23T06:45:12;99695.56;;;25.48;44.25
12897;BME280;6516;35.028;32.372;2023-04-23T06:47:40;99695.69;;;25.67;44.27
12897;BME280;6516;35.028;32.372;2023-04-23T06:50:08;99690.38;;;25.86;42.94
12897;BME280;6516;35.028;32.372;2023-04-23T06:52:37;99693.50;;;25.82;43.43
12897;BME280;6516;35.028;32.372;2023-04-23T06:55:06;99689.25;;;26.09;42.68
12897;BME280;6516;35.028;32.372;2023-04-23T06:57:37;99696.38;;;26.20;43.27
12897;BME280;6516;35.028;32.372;2023-04-23T07:00:06;99684.94;;;26.37;42.16
12897;BME280;6516;35.028;32.372;2023-04-23T07:02:35;99683.94;;;26.47;41.01
12897;BME280;6516;35.028;32.372;2023-04-23T07:05:04;99684.13;;;26.46;40.08
12897;BME280;6516;35.028;32.372;2023-04-23T07:07:32;99680.38;;;26.37;38.98
12897;BME280;6516;35.028;32.372;2023-04-23T07:10:04;99687.47;;;26.59;37.69
12897;BME280;6516;35.028;32.372;2023-04-23T07:12:33;99689.47;;;26.66;36.08
12897;BME280;6516;35.028;32.372;2023-04-23T07:15:01;99687.63;;;26.95;39.12
12897;BME280;6516;35.028;32.372;2023-04-23T07:17:29;99685.50;;;27.08;39.67
12897;BME280;6516;35.028;32.372;2023-04-23T07:19:56;99689.09;;;27.19;39.44
12897;BME280;6516;35.028;32.372;2023-04-23T07:22:25;99694.63;;;27.27;39.19
12897;BME280;6516;35.028;32.372;2023-04-23T07:24:53;99694.63;;;27.27;39.63
12897;BME280;6516;35.028;32.372;2023-04-23T07:27:22;99697.03;;;27.39;38.30
12897;BME280;6516;35.028;32.372;2023-04-23T07:29:50;99702.31;;;27.41;38.84
12897;BME280;6516;35.028;32.372;2023-04-23T07:32:18;99696.31;;;27.47;39.84
12897;BME280;6516;35.028;32.372;2023-04-23T07:34:53;99701.34;;;27.32;41.32
12897;BME280;6516;35.028;32.372;2023-04-23T07:37:21;99702.44;;;27.49;41.46
12897;BME280;6516;35.028;32.372;2023-04-23T07:39:49;99700.84;;;27.56;39.79
12897;BME280;6516;35.028;32.372;2023-04-23T07:42:18;99699.75;;;27.39;39.49
12897;BME280;6516;35.028;32.372;2023-04-23T07:44:47;99706.28;;;27.46;39.91
12897;BME280;6516;35.028;32.372;2023-04-23T07:47:15;99707.44;;;27.44;40.60
12897;BME280;6516;35.028;32.372;2023-04-23T07:49:42;99720.66;;;27.28;41.62
12897;BME280;6516;35.028;32.372;2023-04-23T07:52:10;99719.81;;;27.37;42.56
12897;BME280;6516;35.028;32.372;2023-04-23T07:54:38;99721.41;;;27.30;43.86
12897;BME280;6516;35.028;32.372;2023-04-23T07:57:06;99719.63;;;27.09;44.02
12897;BME280;6516;35.028;32.372;2023-04-23T07:59:35;99720.09;;;27.05;44.41
12897;BME280;6516;35.028;32.372;2023-04-23T08:02:05;99721.94;;;27.24;44.24
12897;BME280;6516;35.028;32.372;2023-04-23T08:04:33;99724.38;;;27.36;44.11
12897;BME280;6516;35.028;32.372;2023-04-23T08:07:00;99721.63;;;27.17;44.30
12897;BME280;6516;35.028;32.372;2023-04-23T08:09:28;99716.28;;;27.36;45.26
12897;BME280;6516;35.028;32.372;2023-04-23T08:11:56;99711.81;;;27.54;45.72
12897;BME280;6516;35.028;32.372;2023-04-23T08:14:23;99718.81;;;27.47;44.58
12897;BME280;6516;35.028;32.372;2023-04-23T08:16:51;99715.06;;;27.77;44.43
12897;BME280;6516;35.028;32.372;2023-04-23T08:19:21;99712.81;;;27.63;38.76
12897;BME280;6516;35.028;32.372;2023-04-23T08:21:48;99715.59;;;27.99;38.38
12897;BME280;6516;35.028;32.372;2023-04-23T08:24:17;99715.38;;;28.20;37.27
12897;BME280;6516;35.028;32.372;2023-04-23T08:26:44;99709.00;;;28.11;36.67
12897;BME280;6516;35.028;32.372;2023-04-23T08:29:13;99699.94;;;27.93;36.13
12897;BME280;6516;35.028;32.372;2023-04-23T08:31:45;99701.78;;;27.93;36.16
12897;BME280;6516;35.028;32.372;2023-04-23T08:34:12;99701.22;;;27.99;36.30
12897;BME280;6516;35.028;32.372;2023-04-23T08:36:42;99703.59;;;28.11;34.58
12897;BME280;6516;35.028;32.372;2023-04-23T08:39:11;99715.91;;;27.96;34.67
12897;BME280;6516;35.028;32.372;2023-04-23T08:41:39;99712.47;;;27.94;34.78
12897;BME280;6516;35.028;32.372;2023-04-23T08:44:12;99716.75;;;27.78;33.17
12897;BME280;6516;35.028;32.372;2023-04-23T08:46:43;99711.44;;;28.05;33.86
12897;BME280;6516;35.028;32.372;2023-04-23T08:49:14;99715.38;;;27.83;33.28
12897;BME280;6516;35.028;32.372;2023-04-23T08:51:47;99712.63;;;27.74;34.43
12897;BME280;6516;35.028;32.372;2023-04-23T08:54:20;99708.19;;;28.01;33.74
12897;BME280;6516;35.028;32.372;2023-04-23T08:56:50;99714.75;;;27.99;34.92
12897;BME280;6516;35.028;32.372;2023-04-23T08:59:19;99712.53;;;27.66;34.84
12897;BME280;6516;35.028;32.372;2023-04-23T09:01:48;99709.66;;;27.77;34.71
12897;BME280;6516;35.028;32.372;2023-04-23T09:04:15;99706.25;;;27.56;33.74
12897;BME280;6516;35.028;32.372;2023-04-23T09:06:46;99707.03;;;27.29;33.26
12897;BME280;6516;35.028;32.372;2023-04-23T09:09:15;99706.25;;;27.56;33.69
12897;BME280;6516;35.028;32.372;2023-04-23T09:11:43;99700.53;;;27.78;34.80
12897;BME280;6516;35.028;32.372;2023-04-23T09:14:12;99697.97;;;27.95;34.94
12897;BME280;6516;35.028;32.372;2023-04-23T09:16:40;99697.53;;;28.27;33.76
12897;BME280;6516;35.028;32.372;2023-04-23T09:19:10;99692.50;;;28.41;34.57
12897;BME280;6516;35.028;32.372;2023-04-23T09:21:38;99690.22;;;28.64;33.18
12897;BME280;6516;35.028;32.372;2023-04-23T09:24:10;99691.63;;;28.50;34.61
12897;BME280;6516;35.028;32.372;2023-04-23T09:26:43;99686.81;;;28.35;35.34
12897;BME280;6516;35.028;32.372;2023-04-23T09:29:13;99697.28;;;28.20;33.70
12897;BME280;6516;35.028;32.372;2023-04-23T09:31:43;99696.91;;;28.42;33.69
12897;BME280;6516;35.028;32.372;2023-04-23T09:34:14;99688.13;;;28.31;35.42
12897;BME280;6516;35.028;32.372;2023-04-23T09:36:42;99685.47;;;28.48;33.59
12897;BME280;6516;35.028;32.372;2023-04-23T09:39:13;99685.19;;;28.51;34.94
12897;BME280;6516;35.028;32.372;2023-04-23T09:41:41;99685.19;;;28.69;33.91
12897;BME280;6516;35.028;32.372;2023-04-23T09:44:11;99691.09;;;28.64;31.92
12897;BME280;6516;35.028;32.372;2023-04-23T09:46:41;99693.03;;;28.72;33.12
12897;BME280;6516;35.028;32.372;2023-04-23T09:49:12;99688.50;;;28.90;35.28
12897;BME280;6516;35.028;32.372;2023-04-23T09:51:42;99691.03;;;28.47;36.05
12897;BME280;6516;35.028;32.372;2023-04-23T09:54:14;99685.31;;;28.77;33.27
12897;BME280;6516;35.028;32.372;2023-04-23T09:56:43;99691.22;;;28.36;35.72
12897;BME280;6516;35.028;32.372;2023-04-23T09:59:22;99683.50;;;28.68;34.02
12897;BME280;6516;35.028;32.372;2023-04-23T10:01:50;99682.28;;;28.80;33.23
12897;BME280;6516;35.028;32.372;2023-04-23T10:04:19;99684.13;;;28.79;33.71
12897;BME280;6516;35.028;32.372;2023-04-23T10:06:52;99680.94;;;28.39;37.50
12897;BME280;6516;35.028;32.372;2023-04-23T10:09:23;99679.06;;;28.13;35.09
12897;BME280;6516;35.028;32.372;2023-04-23T10:11:53;99670.88;;;28.22;36.31
12897;BME280;6516;35.028;32.372;2023-04-23T10:14:22;99666.88;;;28.26;36.72
12897;BME280;6516;35.028;32.372;2023-04-23T10:16:52;99673.31;;;28.25;36.36
12897;BME280;6516;35.028;32.372;2023-04-23T10:19:24;99669.44;;;28.28;38.71
12897;BME280;6516;35.028;32.372;2023-04-23T10:21:55;99664.34;;;27.79;38.04
12897;BME280;6516;35.028;32.372;2023-04-23T10:24:28;99662.50;;;27.70;37.55
12897;BME280;6516;35.028;32.372;2023-04-23T10:27:00;99658.94;;;27.79;40.38
12897;BME280;6516;35.028;32.372;2023-04-23T10:29:30;99662.34;;;27.90;39.33
12897;BME280;6516;35.028;32.372;2023-04-23T10:32:01;99657.75;;;28.00;39.28
12897;BME280;6516;35.028;32.372;2023-04-23T10:34:30;99656.09;;;27.90;38.93
12897;BME280;6516;35.028;32.372;2023-04-23T10:36:59;99658.75;;;27.15;40.75
12897;BME280;6516;35.028;32.372;2023-04-23T10:39:31;99662.28;;;27.44;40.00
12897;BME280;6516;35.028;32.372;2023-04-23T10:42:00;99658.47;;;27.28;40.59
12897;BME280;6516;35.028;32.372;2023-04-23T10:44:32;99656.47;;;26.91;42.97
12897;BME280;6516;35.028;32.372;2023-04-23T10:47:01;99659.00;;;26.15;41.91
12897;BME280;6516;35.028;32.372;2023-04-23T10:49:30;99658.78;;;26.28;42.96
12897;BME280;6516;35.028;32.372;2023-04-23T10:51:58;99661.03;;;26.32;42.63
12897;BME280;6516;35.028;32.372;2023-04-23T10:54:32;99667.22;;;26.04;42.53
12897;BME280;6516;35.028;32.372;2023-04-23T10:57:02;99670.50;;;25.57;41.99
12897;BME280;6516;35.028;32.372;2023-04-23T10:59:32;99674.94;;;25.47;42.08
12897;BME280;6516;35.028;32.372;2023-04-23T11:02:05;99678.94;;;25.73;44.39
12897;BME280;6516;35.028;32.372;2023-04-23T11:04:35;99670.41;;;25.68;45.00
12897;BME280;6516;35.028;32.372;2023-04-23T11:07:08;99662.56;;;25.65;45.29
12897;BME280;6516;35.028;32.372;2023-04-23T11:09:40;99666.13;;;25.66;43.30
12897;BME280;6516;35.028;32.372;2023-04-23T11:12:11;99666.69;;;25.39;43.15
12897;BME280;6516;35.028;32.372;2023-04-23T11:14:45;99666.22;;;25.55;44.22
12897;BME280;6516;35.028;32.372;2023-04-23T11:17:15;99678.72;;;25.56;44.13
12897;BME280;6516;35.028;32.372;2023-04-23T11:20:05;99669.22;;;25.41;45.10
12897;BME280;6516;35.028;32.372;2023-04-23T11:22:35;99680.81;;;25.00;47.12
12897;BME280;6516;35.028;32.372;2023-04-23T11:25:08;99678.25;;;24.67;49.64
12897;BME280;6516;35.028;32.372;2023-04-23T11:27:38;99674.00;;;25.17;48.37
12897;BME280;6516;35.028;32.372;2023-04-23T11:30:10;99676.28;;;25.32;46.68
12897;BME280;6516;35.028;32.372;2023-04-23T11:32:39;99680.63;;;25.65;46.99
12897;BME280;6516;35.028;32.372;2023-04-23T11:35:07;99675.28;;;25.54;47.13
12897;BME280;6516;35.028;32.372;2023-04-23T11:37:39;99669.72;;;25.76;47.21
12897;BME280;6516;35.028;32.372;2023-04-23T11:40:10;99661.47;;;24.64;48.54
12897;BME280;6516;35.028;32.372;2023-04-23T11:42:43;99663.97;;;24.87;49.42
12897;BME280;6516;35.028;32.372;2023-04-23T11:45:19;99663.56;;;24.71;49.49
12897;BME280;6516;35.028;32.372;2023-04-23T11:47:49;99658.91;;;24.51;49.14
12897;BME280;6516;35.028;32.372;2023-04-23T11:50:21;99664.19;;;24.53;49.48
12897;BME280;6516;35.028;32.372;2023-04-23T11:52:50;99662.28;;;24.86;50.74
12897;BME280;6516;35.028;32.372;2023-04-23T11:55:20;99657.91;;;24.74;50.22
12897;BME280;6516;35.028;32.372;2023-04-23T11:57:50;99654.94;;;25.09;49.45
12897;BME280;6516;35.028;32.372;2023-04-23T12:00:19;99665.69;;;25.40;48.92
12897;BME280;6516;35.028;32.372;2023-04-23T12:02:52;99661.75;;;24.92;50.16
12897;BME280;6516;35.028;32.372;2023-04-23T12:05:27;99667.78;;;25.16;50.39
12897;BME280;6516;35.028;32.372;2023-04-23T12:08:06;99669.31;;;25.50;48.44
12897;BME280;6516;35.028;32.372;2023-04-23T12:10:43;99664.38;;;25.55;47.83
12897;BME280;6516;35.028;32.372;2023-04-23T12:13:13;99665.84;;;24.76;49.75
12897;BME280;6516;35.028;32.372;2023-04-23T12:15:46;99660.41;;;25.18;49.31
12897;BME280;6516;35.028;32.372;2023-04-23T12:18:14;99659.19;;;24.59;51.33
12897;BME280;6516;35.028;32.372;2023-04-23T12:20:43;99658.88;;;24.84;50.02
12897;BME280;6516;35.028;32.372;2023-04-23T12:23:11;99657.75;;;24.87;49.53
12897;BME280;6516;35.028;32.372;2023-04-23T12:25:39;99660.84;;;25.23;49.69
12897;BME280;6516;35.028;32.372;2023-04-23T12:28:09;99652.28;;;25.29;49.50
12897;BME280;6516;35.028;32.372;2023-04-23T12:30:42;99662.56;;;25.24;47.42
12897;BME280;6516;35.028;32.372;2023-04-23T12:33:11;99655.47;;;25.03;47.16
12897;BME280;6516;35.028;32.372;2023-04-23T12:35:40;99660.41;;;25.18;48.05
12897;BME280;6516;35.028;32.372;2023-04-23T12:38:21;99657.81;;;25.48;48.87
12897;BME280;6516;35.028;32.372;2023-04-23T12:40:49;99662.50;;;25.15;48.59
12897;BME280;6516;35.028;32.372;2023-04-23T12:43:19;99659.09;;;25.33;48.49
12897;BME280;6516;35.028;32.372;2023-04-23T12:45:47;99662.66;;;25.02;49.61
12897;BME280;6516;35.028;32.372;2023-04-23T12:48:14;99664.31;;;24.62;51.76
12897;BME280;6516;35.028;32.372;2023-04-23T12:50:44;99665.06;;;24.53;52.61
12897;BME280;6516;35.028;32.372;2023-04-23T12:53:12;99670.78;;;24.71;50.53
12897;BME280;6516;35.028;32.372;2023-04-23T12:55:40;99664.84;;;24.88;49.61
12897;BME280;6516;35.028;32.372;2023-04-23T12:58:10;99656.50;;;24.48;52.10
12897;BME280;6516;35.028;32.372;2023-04-23T13:00:39;99664.28;;;24.73;51.75
12897;BME280;6516;35.028;32.372;2023-04-23T13:03:07;99654.59;;;25.02;50.74
12897;BME280;6516;35.028;32.372;2023-04-23T13:05:35;99650.81;;;25.05;50.67
12897;BME280;6516;35.028;32.372;2023-04-23T13:08:02;99647.09;;;24.85;49.93